Time;durP1;ratioP1;P1;durP2;ratioP2;P2;SDS_P1;SDS_P2;PMS_P1;PMS_P2;Temp;Humidity;BMP_temperature;BMP_pressure;BME280_temperature;BME280_humidity;BME280_pressure;Samples;Min_cycle;Max_cycle;Signal;HPM_P1;HPM_P2
2023/05/19 00:02:19;;;;;;;12.00;5.65;;;11.30;99.90;;;;;;2602785;54;20803;31
2023/05/19 00:04:59;;;;;;;8.93;5.38;;;11.30;99.90;;;;;;2602582;54;20031;31
2023/05/19 00:10:59;;;;;;;11.40;4.93;;;11.10;99.90;;;;;;2602812;54;20068;31
2023/05/19 00:13:53;;;;;;;5.75;4.88;;;11.10;99.90;;;;;;2648531;39;20413;31
2023/05/19 00:16:41;;;;;;;6.32;5.05;;;11.10;99.90;;;;;;2657131;31;21517;31
2023/05/19 00:25:12;;;;;;;7.87;4.60;;;11.00;99.90;;;;;;2602825;54;20062;31
2023/05/19 00:28:03;;;;;;;7.03;4.00;;;10.90;99.90;;;;;;2602600;54;19950;31
2023/05/19 00:30:52;;;;;;;8.60;3.75;;;10.90;99.90;;;;;;2602518;54;20034;31
2023/05/19 00:34:14;;;;;;;8.07;4.03;;;10.90;99.90;;;;;;2602354;54;20809;31
2023/05/19 00:37:08;;;;;;;5.68;3.58;;;10.80;99.90;;;;;;2621045;47;20653;31
2023/05/19 00:39:58;;;;;;;7.45;4.10;;;10.90;99.90;;;;;;2602639;54;20866;31
2023/05/19 00:43:04;;;;;;;;;;;;;;;;;;;;;
2023/05/19 00:45:57;;;;;;;5.30;3.63;;;10.80;99.90;;;;;;2603121;54;20115;31
2023/05/19 00:48:48;;;;;;;7.80;3.72;;;10.80;99.90;;;;;;2603265;54;20030;31
2023/05/19 01:01:20;;;;;;;6.03;4.03;;;10.70;99.90;;;;;;2603160;54;20413;31
2023/05/19 01:04:15;;;;;;;6.82;3.70;;;10.60;99.90;;;;;;2603243;54;21310;31
2023/05/19 01:06:53;;;;;;;7.45;3.78;;;10.60;99.90;;;;;;2621931;46;20030;31
2023/05/19 01:23:00;;;;;;;4.83;3.27;;;10.40;99.90;;;;;;2608207;46;20025;31
2023/05/19 01:26:01;;;;;;;6.20;3.60;;;10.60;99.90;;;;;;2620096;46;20252;31
2023/05/19 01:28:54;;;;;;;6.32;3.55;;;10.50;99.90;;;;;;2603410;54;20161;31
2023/05/19 01:34:24;;;;;;;12.68;5.05;;;10.60;99.90;;;;;;2609945;46;20754;31
2023/05/19 01:37:06;;;;;;;7.05;4.28;;;10.50;99.90;;;;;;2621651;46;20026;31
2023/05/19 01:39:41;;;;;;;;;;;10.50;99.90;;;;;;2603511;54;20049;31
2023/05/19 01:42:20;;;;;;;8.60;4.85;;;10.50;99.90;;;;;;2618812;46;19947;31
2023/05/19 01:45:05;;;;;;;8.82;4.57;;;10.50;99.90;;;;;;2603127;54;20062;31
2023/05/19 01:47:54;;;;;;;9.00;5.35;;;10.50;99.90;;;;;;2603091;54;20072;31
2023/05/19 01:53:31;;;;;;;9.70;5.05;;;10.50;99.90;;;;;;2621138;46;21290;31
2023/05/19 01:56:47;;;;;;;7.65;5.50;;;10.50;99.90;;;;;;2602960;54;20862;31
2023/05/19 01:59:34;;;;;;;7.68;5.47;;;10.50;99.90;;;;;;2603122;54;20759;31
2023/05/19 02:08:00;;;;;;;6.57;4.70;;;10.50;99.90;;;;;;2602914;54;20069;31
2023/05/19 02:13:19;;;;;;;7.75;5.80;;;10.50;99.90;;;;;;2603092;54;20921;31
2023/05/19 02:16:06;;;;;;;7.82;5.40;;;10.50;99.90;;;;;;2603240;54;20909;31
2023/05/19 02:19:01;;;;;;;7.90;5.15;;;10.50;99.90;;;;;;2603337;54;20030;31
2023/05/19 02:22:06;;;;;;;6.93;5.50;;;10.40;99.90;;;;;;2602704;54;20026;31
2023/05/19 02:27:56;;;;;;;8.67;5.87;;;10.40;99.90;;;;;;2620856;46;20908;31
2023/05/19 02:31:09;;;;;;;8.60;5.25;;;10.50;99.90;;;;;;2603175;54;20884;31
2023/05/19 02:59:47;;;;;;;7.25;5.57;;;10.50;99.90;;;;;;2601147;54;20123;31
2023/05/19 03:08:43;;;;;;;12.05;6.60;;;10.50;99.90;;;;;;2603753;54;20033;31
2023/05/19 03:11:23;;;;;;;11.05;6.28;;;10.40;99.90;;;;;;2620408;46;20022;31
2023/05/19 03:14:22;;;;;;;7.15;5.30;;;10.50;99.90;;;;;;2603031;54;20423;31
2023/05/19 03:20:06;;;;;;;9.10;5.60;;;10.50;99.90;;;;;;2602960;54;20023;31
2023/05/19 03:23:02;;;;;;;9.55;5.53;;;10.40;99.90;;;;;;2621440;46;20403;31
2023/05/19 03:26:23;;;;;;;9.75;5.95;;;10.40;99.90;;;;;;2620952;46;20034;31
2023/05/19 03:40:46;;;;;;;15.00;6.95;;;10.50;99.90;;;;;;2602150;54;20758;31
2023/05/19 03:46:36;;;;;;;;;;;10.60;99.90;;;;;;2603173;54;20038;31
2023/05/19 03:49:30;;;;;;;10.30;6.47;;;10.60;99.90;;;;;;2680236;39;20317;31
2023/05/19 03:55:48;;;;;;;8.95;5.68;;;10.60;99.90;;;;;;2621136;47;20034;31
2023/05/19 03:58:42;;;;;;;9.90;5.82;;;10.60;99.90;;;;;;2602816;54;20843;31
2023/05/19 04:01:19;;;;;;;10.52;6.03;;;10.60;99.90;;;;;;2602694;54;20056;31
2023/05/19 04:04:04;;;;;;;11.80;7.90;;;10.70;99.90;;;;;;2621248;47;20045;31
2023/05/19 04:06:47;;;;;;;13.13;9.15;;;10.70;99.90;;;;;;2602909;54;19935;31
2023/05/19 04:09:30;;;;;;;10.52;6.90;;;10.70;99.90;;;;;;2620940;47;20081;31
2023/05/19 04:12:10;;;;;;;8.55;6.47;;;10.70;99.90;;;;;;2602802;54;20179;31
2023/05/19 04:14:51;;;;;;;10.82;5.72;;;10.70;99.90;;;;;;2602863;54;20736;31
2023/05/19 04:17:32;;;;;;;9.90;5.30;;;10.70;99.90;;;;;;2603270;54;20893;31
2023/05/19 04:20:24;;;;;;;11.07;6.43;;;10.80;99.90;;;;;;2691280;39;20406;31
2023/05/19 04:23:15;;;;;;;10.00;5.47;;;10.70;99.90;;;;;;2622014;46;20027;31
2023/05/19 04:25:53;;;;;;;9.25;5.85;;;10.80;99.90;;;;;;2622095;46;20034;31
2023/05/19 04:28:45;;;;;;;13.73;5.80;;;10.80;99.90;;;;;;2603394;54;20046;31
2023/05/19 04:31:45;;;;;;;7.13;4.55;;;10.80;99.90;;;;;;2603554;54;20026;31
2023/05/19 04:34:28;;;;;;;8.77;4.80;;;10.80;99.90;;;;;;2603271;54;20023;31
2023/05/19 04:37:28;;;;;;;5.30;3.90;;;10.90;99.90;;;;;;2603307;54;20045;31
2023/05/19 04:40:19;;;;;;;7.07;4.93;;;10.90;99.90;;;;;;2603443;54;20042;31
2023/05/19 04:43:02;;;;;;;11.95;5.00;;;10.90;99.90;;;;;;2603511;54;20030;31
2023/05/19 04:48:45;;;;;;;7.75;4.20;;;10.90;99.90;;;;;;2609157;39;20339;31
2023/05/19 04:51:42;;;;;;;8.45;4.38;;;10.90;99.90;;;;;;2603100;54;20104;31
2023/05/19 04:54:30;;;;;;;7.97;4.90;;;10.90;99.90;;;;;;2603287;54;20038;31
2023/05/19 05:03:34;;;;;;;8.15;4.53;;;10.90;99.90;;;;;;2603395;54;20029;31
2023/05/19 05:09:31;;;;;;;7.93;4.47;;;10.90;99.90;;;;;;2603517;54;20051;31
2023/05/19 05:12:16;;;;;;;6.63;4.87;;;10.90;99.90;;;;;;2606374;46;20305;31
2023/05/19 05:46:09;;;;;;;7.05;4.57;;;11.30;99.90;;;;;;2603458;54;20250;31
2023/05/19 05:49:12;;;;;;;8.40;4.50;;;11.30;99.90;;;;;;2621654;46;20030;31
2023/05/19 05:55:02;;;;;;;11.25;3.92;;;11.30;99.90;;;;;;2603257;54;20168;31
2023/05/19 06:20:40;;;;;;;9.13;3.47;;;11.70;99.90;;;;;;2603081;54;20751;31
2023/05/19 06:25:53;;;;;;;4.67;3.20;;;11.80;99.90;;;;;;2603216;54;20045;31
2023/05/19 06:28:30;;;;;;;7.68;3.63;;;11.90;99.90;;;;;;2602581;54;20823;31
2023/05/19 06:37:21;;;;;;;8.25;3.95;;;12.00;99.90;;;;;;2603069;54;20235;31
2023/05/19 06:40:19;;;;;;;9.23;4.22;;;12.00;99.90;;;;;;2603249;54;20026;31
2023/05/19 06:43:03;;;;;;;8.60;3.60;;;12.00;99.90;;;;;;2602777;54;20046;31
2023/05/19 06:49:00;;;;;;;5.40;2.97;;;12.00;99.90;;;;;;2603121;54;20971;31
2023/05/19 06:51:42;;;;;;;6.10;3.05;;;12.00;99.90;;;;;;2603124;54;20029;31
2023/05/19 06:54:27;;;;;;;8.27;3.92;;;12.00;99.90;;;;;;2603151;54;20842;31
2023/05/19 06:57:09;;;;;;;8.85;3.13;;;12.00;99.90;;;;;;2621395;46;20882;31
2023/05/19 07:02:37;;;;;;;12.15;5.85;;;12.00;99.90;;;;;;2602918;54;20965;31
2023/05/19 07:05:38;;;;;;;8.05;4.30;;;12.00;99.90;;;;;;2607384;46;20018;31
2023/05/19 07:11:36;;;;;;;7.80;3.47;;;12.00;99.90;;;;;;2602642;54;20026;31
2023/05/19 07:14:23;;;;;;;16.30;7.03;;;12.00;99.90;;;;;;2617425;46;20030;31
2023/05/19 07:17:06;;;;;;;10.35;4.70;;;12.00;99.90;;;;;;2602815;54;20399;31
2023/05/19 07:19:54;;;;;;;11.32;4.72;;;12.00;99.90;;;;;;2602810;54;20030;31
2023/05/19 07:22:43;;;;;;;7.70;3.85;;;12.00;99.90;;;;;;2621098;46;21223;31
2023/05/19 07:31:35;;;;;;;6.20;3.00;;;12.10;99.90;;;;;;2606554;47;20019;31
2023/05/19 07:34:17;;;;;;;6.25;2.80;;;12.20;99.90;;;;;;2603188;54;20049;31
2023/05/19 07:37:14;;;;;;;6.28;2.80;;;12.10;99.90;;;;;;2602238;54;20159;31
2023/05/19 07:42:45;;;;;;;5.88;2.33;;;12.20;99.90;;;;;;2621680;47;20031;31
2023/05/19 07:45:24;;;;;;;5.55;2.15;;;12.20;99.90;;;;;;2621343;47;20026;31
2023/05/19 07:48:06;;;;;;;5.90;2.05;;;12.20;99.90;;;;;;2603081;54;20038;31
2023/05/19 07:50:52;;;;;;;5.82;2.65;;;12.30;99.90;;;;;;2603446;54;20855;31
2023/05/19 07:53:33;;;;;;;5.80;2.38;;;12.20;99.90;;;;;;2603887;54;20116;31
2023/05/19 07:56:21;;;;;;;5.57;3.25;;;12.30;99.90;;;;;;2603673;54;20920;31
2023/05/19 07:59:07;;;;;;;4.00;2.30;;;12.20;99.90;;;;;;2603600;54;20859;31
2023/05/19 08:01:42;;;;;;;7.80;4.13;;;12.30;99.90;;;;;;2603683;54;20023;31
2023/05/19 08:04:32;;;;;;;9.10;4.17;;;12.20;99.90;;;;;;2603587;54;20019;31
2023/05/19 08:10:38;;;;;;;;;;;;;;;;;;;;;
2023/05/19 08:13:26;;;;;;;7.78;4.30;;;12.30;99.90;;;;;;2621994;46;20034;31
2023/05/19 08:16:06;;;;;;;13.88;5.88;;;12.30;99.90;;;;;;2621484;46;22235;31
2023/05/19 08:18:53;;;;;;;10.45;5.80;;;12.30;99.90;;;;;;2669943;39;20341;31
2023/05/19 08:21:35;;;;;;;10.15;5.35;;;12.30;99.90;;;;;;2602839;54;20042;31
2023/05/19 08:24:14;;;;;;;12.00;6.30;;;12.40;99.90;;;;;;2621679;46;20034;31
2023/05/19 08:26:54;;;;;;;9.63;4.43;;;12.50;99.90;;;;;;2603617;54;20045;31
2023/05/19 08:29:31;;;;;;;10.45;4.80;;;12.50;99.90;;;;;;2603799;54;20029;31
2023/05/19 08:32:08;;;;;;;5.17;3.70;;;12.50;99.90;;;;;;2603403;54;20841;31
2023/05/19 08:34:59;;;;;;;7.20;3.77;;;12.70;99.90;;;;;;2603691;54;20030;31
2023/05/19 08:38:13;;;;;;;6.25;3.00;;;12.70;99.90;;;;;;2603721;54;20026;31
2023/05/19 08:41:39;;;;;;;7.28;5.03;;;12.80;99.90;;;;;;2603520;54;19969;31
2023/05/19 08:44:29;;;;;;;10.80;5.65;;;12.80;99.90;;;;;;2603616;54;20752;31
2023/05/19 08:47:12;;;;;;;9.90;5.10;;;12.90;99.90;;;;;;2603616;54;20426;31
2023/05/19 08:49:59;;;;;;;6.63;3.40;;;12.90;99.90;;;;;;2603524;54;20430;31
2023/05/19 08:52:48;;;;;;;6.20;3.35;;;13.00;99.90;;;;;;2603572;54;20013;31
2023/05/19 08:55:35;;;;;;;9.68;3.60;;;13.10;99.90;;;;;;2603419;54;20069;31
2023/05/19 08:58:15;;;;;;;4.90;3.10;;;13.10;99.90;;;;;;2603593;54;20046;31
2023/05/19 09:00:59;;;;;;;7.53;4.60;;;13.20;99.90;;;;;;2603376;54;20116;31
2023/05/19 09:03:39;;;;;;;10.32;3.30;;;13.20;99.90;;;;;;2603393;54;20008;31
2023/05/19 09:06:53;;;;;;;;;;;;;;;;;;;;;
2023/05/19 09:49:31;;;;;;;7.55;3.38;;;13.70;99.90;;;;;;2603258;54;20909;31
2023/05/19 10:10:58;;;;;;;8.70;3.95;;;14.50;99.90;;;;;;2602291;54;20817;31
2023/05/19 10:29:33;;;;;;;8.35;3.88;;;14.90;99.90;;;;;;2602536;54;20058;31
2023/05/19 10:35:37;;;;;;;9.45;3.95;;;14.80;99.90;;;;;;2602603;54;20926;31
2023/05/19 10:55:46;;;;;;;4.63;3.15;;;14.80;99.90;;;;;;2608267;46;20030;31
2023/05/19 10:58:43;;;;;;;8.70;3.97;;;14.70;99.90;;;;;;2603258;54;20061;31
2023/05/19 11:01:45;;;;;;;6.03;3.47;;;14.70;99.90;;;;;;2603137;54;20776;31
2023/05/19 11:08:09;;;;;;;8.73;4.35;;;14.60;99.90;;;;;;2603036;54;20022;31
2023/05/19 11:14:05;;;;;;;10.30;5.60;;;14.60;99.90;;;;;;2621134;46;20057;31
2023/05/19 11:16:58;;;;;;;10.75;5.95;;;14.50;99.90;;;;;;2602856;54;20152;31
2023/05/19 11:26:02;;;;;;;7.85;5.03;;;14.40;99.90;;;;;;2611327;47;20152;31
2023/05/19 11:29:00;;;;;;;8.73;5.00;;;14.30;99.90;;;;;;2601980;54;20019;31
2023/05/19 11:32:03;;;;;;;9.15;5.00;;;14.30;99.90;;;;;;2603214;54;20037;31
2023/05/19 11:47:35;;;;;;;6.35;5.68;;;14.10;99.90;;;;;;2630194;54;20014;-96
2023/05/19 12:09:54;;;;;;;6.78;6.00;;;13.90;99.90;;;;;;2602617;54;20797;31
2023/05/19 12:12:54;;;;;;;6.70;5.32;;;13.90;99.90;;;;;;2602981;54;20149;31
2023/05/19 12:16:22;;;;;;;6.93;6.13;;;13.90;99.90;;;;;;2602574;54;20030;31
2023/05/19 12:23:03;;;;;;;;;;;;;;;;;;;;;
2023/05/19 12:33:17;;;;;;;7.22;5.13;;;13.80;99.90;;;;;;2602758;54;20918;31
2023/05/19 12:36:01;;;;;;;9.15;6.25;;;13.90;99.90;;;;;;2603821;47;20108;31
2023/05/19 12:42:08;;;;;;;6.55;5.65;;;13.90;99.90;;;;;;2603867;54;20112;31
2023/05/19 12:45:05;;;;;;;7.03;5.18;;;13.90;99.90;;;;;;2621731;46;21155;31
2023/05/19 12:47:54;;;;;;;6.67;5.17;;;13.90;99.90;;;;;;2603872;54;20989;31
2023/05/19 12:53:20;;;;;;;10.10;6.15;;;14.00;99.90;;;;;;2603584;54;20904;31
2023/05/19 12:56:11;;;;;;;7.68;5.97;;;13.90;99.90;;;;;;2603683;54;20135;31
2023/05/19 12:58:58;;;;;;;7.93;6.10;;;13.90;99.90;;;;;;2603485;54;20033;31
2023/05/19 13:04:12;;;;;;;9.43;6.55;;;14.10;99.90;;;;;;2603175;54;20179;31
2023/05/19 13:06:55;;;;;;;23.77;11.23;;;14.20;99.90;;;;;;2602937;54;20885;31
2023/05/19 13:09:33;;;;;;;10.55;7.75;;;14.40;99.90;;;;;;2603476;54;20031;31
2023/05/19 13:12:14;;;;;;;13.38;9.40;;;14.40;99.90;;;;;;2621651;46;20452;31
2023/05/19 13:14:52;;;;;;;10.88;9.13;;;14.50;99.90;;;;;;2603528;54;20884;31
2023/05/19 13:17:35;;;;;;;14.75;10.88;;;14.50;99.90;;;;;;2603464;54;20017;31
2023/05/19 13:20:30;;;;;;;12.60;9.57;;;14.50;99.90;;;;;;2603387;54;20026;31
2023/05/19 13:26:03;;;;;;;10.20;8.05;;;14.40;99.90;;;;;;2603330;54;20962;31
2023/05/19 13:29:11;;;;;;;12.13;7.70;;;14.30;99.90;;;;;;2603572;54;20839;31
2023/05/19 13:31:56;;;;;;;10.50;7.70;;;14.30;99.90;;;;;;2603458;54;20037;31
2023/05/19 13:37:16;;;;;;;9.93;8.20;;;14.30;99.90;;;;;;2603604;54;20037;31
2023/05/19 13:39:57;;;;;;;10.13;7.85;;;14.20;99.90;;;;;;2603590;54;20027;31
2023/05/19 13:42:37;;;;;;;12.90;9.60;;;14.10;99.90;;;;;;2613397;39;20383;31
2023/05/19 13:45:21;;;;;;;12.55;8.80;;;14.20;99.90;;;;;;2603053;54;20791;31
2023/05/19 13:48:18;;;;;;;9.07;8.13;;;14.20;99.90;;;;;;2601954;54;20446;31
2023/05/19 13:50:56;;;;;;;12.82;8.90;;;14.20;99.90;;;;;;2601867;54;20035;31
2023/05/19 13:53:46;;;;;;;10.82;8.93;;;14.30;99.90;;;;;;2621794;46;20034;31
2023/05/19 14:05:29;;;;;;;13.40;8.88;;;14.20;99.90;;;;;;2621815;46;20028;31
2023/05/19 14:11:27;;;;;;;14.07;10.73;;;14.10;99.90;;;;;;2603625;54;20053;31
2023/05/19 14:21:00;;;;;;;13.10;11.67;;;14.10;99.90;;;;;;2602946;54;20929;31
2023/05/19 14:40:07;;;;;;;16.90;13.95;;;14.10;99.90;;;;;;2621729;46;20057;31
2023/05/19 14:42:53;;;;;;;17.65;13.50;;;14.10;99.90;;;;;;2603470;54;20085;31
2023/05/19 14:45:55;;;;;;;19.77;14.10;;;14.10;99.90;;;;;;2675191;31;25248;31
2023/05/19 14:48:34;;;;;;;17.73;13.47;;;14.20;99.90;;;;;;2659439;39;20354;31
2023/05/19 14:51:17;;;;;;;17.55;15.00;;;14.20;99.90;;;;;;2603134;54;20898;31
2023/05/19 14:53:56;;;;;;;20.77;17.42;;;14.30;99.90;;;;;;2621751;46;20046;31
2023/05/19 14:56:36;;;;;;;19.20;16.42;;;14.30;99.90;;;;;;2629497;39;20345;31
2023/05/19 14:59:13;;;;;;;19.00;15.73;;;14.40;99.90;;;;;;2603041;54;20026;31
2023/05/19 15:01:53;;;;;;;18.65;15.65;;;14.50;99.90;;;;;;2602267;54;20948;31
2023/05/19 15:04:33;;;;;;;19.38;14.75;;;14.50;99.90;;;;;;2603369;54;20027;31
2023/05/19 15:07:18;;;;;;;18.80;14.80;;;14.60;99.90;;;;;;2621797;46;20027;31
2023/05/19 15:15:57;;;;;;;18.33;13.80;;;14.60;99.90;;;;;;2603263;54;20387;31
2023/05/19 15:18:58;;;;;;;18.15;15.27;;;14.70;99.90;;;;;;2603015;54;20027;31
2023/05/19 15:21:44;;;;;;;20.58;14.77;;;14.70;99.90;;;;;;2602287;54;20882;31
2023/05/19 15:24:26;;;;;;;18.70;14.35;;;14.60;99.90;;;;;;2603166;46;20145;31
2023/05/19 15:27:14;;;;;;;17.85;14.52;;;14.70;99.90;;;;;;2603189;54;20889;31
2023/05/19 15:32:59;;;;;;;18.10;14.97;;;14.70;99.90;;;;;;2602783;54;20820;31
2023/05/19 15:35:38;;;;;;;22.17;15.23;;;14.70;99.90;;;;;;2626345;46;20034;31
2023/05/19 15:38:42;;;;;;;17.75;15.30;;;14.70;99.90;;;;;;2607466;47;20026;31
2023/05/19 16:44:02;;;;;;;;;;;;;;;;;;;;;
2023/05/19 17:54:01;;;;;;;43.08;13.55;;;14.30;99.90;;;;;;2602378;54;20022;31
2023/05/19 17:56:49;;;;;;;13.38;11.43;;;14.30;99.90;;;;;;2603459;54;20906;31
2023/05/19 17:59:40;;;;;;;15.00;12.20;;;14.40;99.90;;;;;;2621884;46;20962;31
2023/05/19 18:02:32;;;;;;;12.63;11.30;;;14.40;99.90;;;;;;2603411;54;20808;31
2023/05/19 18:08:26;;;;;;;32.40;12.60;;;14.30;99.90;;;;;;2603504;54;20897;31
2023/05/19 18:11:27;;;;;;;16.83;11.52;;;14.30;99.90;;;;;;2603345;54;20025;31
2023/05/19 18:14:18;;;;;;;15.40;12.25;;;14.30;99.90;;;;;;2603446;54;20034;31
2023/05/19 18:17:05;;;;;;;13.80;12.32;;;14.30;99.90;;;;;;2603312;54;20133;31
2023/05/19 18:19:41;;;;;;;;;;;14.30;99.90;;;;;;2603740;54;19935;31
2023/05/19 18:22:30;;;;;;;15.75;11.43;;;14.30;99.90;;;;;;2603188;54;19934;31
2023/05/19 18:25:38;;;;;;;16.30;12.15;;;14.30;99.90;;;;;;2603186;54;21526;31
2023/05/19 18:28:20;;;;;;;37.92;15.02;;;14.20;99.90;;;;;;2603214;54;20089;31
2023/05/19 18:31:04;;;;;;;38.38;14.10;;;14.20;99.90;;;;;;2670329;39;21418;31
2023/05/19 18:33:59;;;;;;;14.80;13.17;;;14.40;99.90;;;;;;2602732;54;20072;31
2023/05/19 18:36:55;;;;;;;14.38;12.30;;;14.50;99.90;;;;;;2621648;46;20038;31
2023/05/19 18:39:53;;;;;;;19.15;15.15;;;14.50;99.90;;;;;;2618726;39;21391;31
2023/05/19 19:05:00;;;;;;;15.15;13.10;;;14.10;99.90;;;;;;2602859;54;21135;31
2023/05/19 19:07:43;;;;;;;20.20;15.75;;;14.10;99.90;;;;;;2607538;46;20030;31
2023/05/19 19:10:39;;;;;;;20.90;16.70;;;14.10;99.90;;;;;;2627265;39;21367;31
2023/05/19 19:13:33;;;;;;;14.10;12.60;;;14.10;99.90;;;;;;2603039;54;20834;31
2023/05/19 19:16:18;;;;;;;17.55;13.57;;;14.10;99.90;;;;;;2602880;54;20124;31
2023/05/19 19:19:06;;;;;;;18.53;13.07;;;14.00;99.90;;;;;;2621741;46;21172;31
2023/05/19 19:21:49;;;;;;;16.70;12.75;;;14.00;99.90;;;;;;2603212;54;20250;31
2023/05/19 19:24:37;;;;;;;16.60;13.00;;;13.90;99.90;;;;;;2603133;54;20825;31
2023/05/19 19:30:35;;;;;;;15.20;11.07;;;13.90;99.90;;;;;;2602937;54;20046;31
2023/05/19 19:43:01;;;;;;;19.70;13.50;;;13.90;99.90;;;;;;2602901;54;20736;31
2023/05/19 19:46:07;;;;;;;44.90;17.25;;;13.80;99.90;;;;;;2602359;54;20887;31
2023/05/19 19:48:52;;;;;;;18.40;11.98;;;13.90;99.90;;;;;;2603525;54;20055;31
2023/05/19 20:20:08;;;;;;;13.75;9.75;;;13.70;99.90;;;;;;2603433;54;20026;31
2023/05/19 21:31:50;;;;;;;25.05;18.45;;;13.30;99.90;;;;;;2621531;46;20457;31
2023/05/19 21:34:54;;;;;;;23.42;19.35;;;13.30;99.90;;;;;;2603113;54;20874;31
2023/05/19 21:37:51;;;;;;;22.20;19.15;;;13.30;99.90;;;;;;2621619;46;20890;31
2023/05/19 21:44:00;;;;;;;22.05;17.55;;;13.20;99.90;;;;;;2603446;54;20414;31
2023/05/19 21:46:51;;;;;;;23.60;18.90;;;13.20;99.90;;;;;;2603349;54;20059;31
2023/05/19 21:49:32;;;;;;;21.85;18.45;;;13.20;99.90;;;;;;2621786;46;20030;31
2023/05/19 22:29:02;;;;;;;28.80;23.00;;;13.10;99.90;;;;;;2617766;39;21336;31
2023/05/19 22:32:00;;;;;;;31.70;23.95;;;13.10;99.90;;;;;;2603042;54;20070;31
2023/05/19 22:34:41;;;;;;;28.40;22.65;;;13.10;99.90;;;;;;2621640;46;20026;31
2023/05/19 22:37:35;;;;;;;27.30;22.65;;;13.10;99.90;;;;;;2603071;54;25157;31
2023/05/19 22:40:21;;;;;;;26.15;21.52;;;13.00;99.90;;;;;;2650130;39;21433;31
2023/05/19 22:43:16;;;;;;;27.80;21.00;;;13.00;99.90;;;;;;2603344;54;20042;31
2023/05/19 22:49:03;;;;;;;24.98;20.30;;;13.00;99.90;;;;;;2603236;54;20097;31
2023/05/19 22:51:45;;;;;;;27.75;22.75;;;13.00;99.90;;;;;;2609149;39;20371;31
2023/05/19 22:54:26;;;;;;;28.13;23.07;;;13.00;99.90;;;;;;2621631;46;20109;31
2023/05/19 22:57:03;;;;;;;31.80;23.65;;;13.00;99.90;;;;;;2603257;54;20121;31
2023/05/19 22:59:41;;;;;;;29.40;24.70;;;13.00;99.90;;;;;;2603034;54;20772;31
2023/05/19 23:02:24;;;;;;;31.52;26.13;;;13.00;99.90;;;;;;2602595;54;20760;31
2023/05/19 23:05:01;;;;;;;32.87;25.83;;;12.90;99.90;;;;;;2603006;54;20027;31
2023/05/19 23:10:34;;;;;;;29.70;25.25;;;12.90;99.90;;;;;;2603152;54;21601;31
2023/05/19 23:13:16;;;;;;;30.20;25.65;;;13.00;99.90;;;;;;2621271;46;20855;31
2023/05/19 23:15:51;;;;;;;32.40;25.42;;;12.90;99.90;;;;;;2603253;54;20031;31
2023/05/19 23:18:35;;;;;;;28.48;22.55;;;12.90;99.90;;;;;;2621229;46;20930;31
2023/05/19 23:21:15;;;;;;;31.07;24.63;;;12.90;99.90;;;;;;2602801;54;20026;31
2023/05/19 23:24:01;;;;;;;31.90;25.40;;;12.90;99.90;;;;;;2613594;46;20031;31
2023/05/19 23:26:50;;;;;;;25.90;22.77;;;12.80;99.90;;;;;;2621625;46;20090;31
2023/05/19 23:29:42;;;;;;;28.45;23.35;;;12.80;99.90;;;;;;2602961;54;20031;31
2023/05/19 23:32:52;;;;;;;28.47;23.90;;;12.80;99.90;;;;;;2602855;54;20157;31
2023/05/19 23:36:17;;;;;;;25.65;21.00;;;12.80;99.90;;;;;;2606660;46;20242;31
2023/05/19 23:42:34;;;;;;;32.17;24.90;;;12.80;99.90;;;;;;2602878;54;20931;31
2023/05/19 23:45:16;;;;;;;32.95;24.70;;;12.80;99.90;;;;;;2608513;39;21133;31
2023/05/19 23:50:58;;;;;;;30.75;24.67;;;12.80;99.90;;;;;;2604802;47;20034;31
2023/05/19 23:54:09;;;;;;;30.30;24.45;;;12.80;99.90;;;;;;2602739;54;20923;31
2023/05/19 23:57:11;;;;;;;29.52;24.02;;;12.80;99.90;;;;;;2603053;54;20030;31
